createdAt,value
2023-04-07T00:02:01.961Z,99485.97
2023-04-07T00:04:30.183Z,99491.72
2023-04-07T00:06:58.264Z,99492.25
2023-04-07T00:09:27.622Z,99487.53
2023-04-07T00:11:56.339Z,99485.75
2023-04-07T00:14:24.256Z,99491.66
2023-04-07T00:16:52.178Z,99494.09
2023-04-07T00:19:20.202Z,99486.50
2023-04-07T00:21:48.126Z,99487.19
2023-04-07T00:24:18.570Z,99486.25
2023-04-07T00:26:56.855Z,99486.06
2023-04-07T00:29:24.939Z,99481.91
2023-04-07T00:31:52.885Z,99485.94
2023-04-07T00:34:20.854Z,99486.13
2023-04-07T00:36:52.250Z,99481.19
2023-04-07T00:39:20.821Z,99497.59
2023-04-07T00:41:50.027Z,99491.50
2023-04-07T00:44:19.261Z,99473.53
2023-04-07T00:46:49.068Z,99490.38
2023-04-07T00:49:17.919Z,99467.44
2023-04-07T00:51:47.086Z,99493.31
2023-04-07T00:54:15.016Z,99493.91
2023-04-07T00:56:43.794Z,99491.31
2023-04-07T00:59:12.005Z,99490.78
2023-04-07T01:01:47.336Z,99493.31
2023-04-07T01:04:24.005Z,99488.13
2023-04-07T01:06:55.988Z,99483.50
2023-04-07T01:09:31.468Z,99482.38
2023-04-07T01:12:06.543Z,99472.19
2023-04-07T01:14:38.997Z,99458.78
2023-04-07T01:17:09.391Z,99480.44
2023-04-07T01:19:40.848Z,99485.50
2023-04-07T01:22:12.940Z,99481.63
2023-04-07T01:24:55.925Z,99478.50
2023-04-07T01:27:37.666Z,99490.75
2023-04-07T01:30:11.617Z,99490.63
2023-04-07T01:32:41.875Z,99484.16
2023-04-07T01:35:13.592Z,99490.38
2023-04-07T01:37:42.776Z,99485.84
2023-04-07T01:40:12.801Z,99490.28
2023-04-07T01:42:42.213Z,99490.38
2023-04-07T01:45:12.621Z,99467.78
2023-04-07T01:47:41.351Z,99498.25
2023-04-07T01:50:12.112Z,99496.56
2023-04-07T01:52:41.547Z,99497.06
2023-04-07T01:55:10.204Z,99490.13
2023-04-07T01:57:38.235Z,99495.22
2023-04-07T02:00:07.778Z,99478.97
2023-04-07T02:02:42.668Z,99482.50
2023-04-07T02:05:16.229Z,99492.06
2023-04-07T02:07:54.928Z,99489.34
2023-04-07T02:10:25.004Z,99487.78
2023-04-07T02:12:54.223Z,99484.53
2023-04-07T02:15:23.614Z,99484.16
2023-04-07T02:17:54.701Z,99488.88
2023-04-07T02:20:24.755Z,99491.66
2023-04-07T02:22:53.837Z,99495.28
2023-04-07T02:25:26.488Z,99480.84
2023-04-07T02:27:55.616Z,99496.13
2023-04-07T02:30:23.656Z,99486.03
2023-04-07T02:32:53.246Z,99491.97
2023-04-07T02:35:21.774Z,99491.66
2023-04-07T02:37:50.677Z,99493.53
2023-04-07T02:40:18.725Z,99496.41
2023-04-07T02:42:47.368Z,99497.88
2023-04-07T02:45:16.144Z,99501.59
2023-04-07T02:47:44.155Z,99497.69
2023-04-07T02:50:13.724Z,99501.84
2023-04-07T02:52:41.720Z,99508.06
2023-04-07T02:55:10.659Z,99500.09
2023-04-07T02:57:38.570Z,99503.97
2023-04-07T03:00:07.628Z,99500.75
2023-04-07T03:02:35.710Z,99511.38
2023-04-07T03:05:04.504Z,99503.78
2023-04-07T03:07:33.845Z,99506.56
2023-04-07T03:10:02.002Z,99485.63
2023-04-07T03:12:30.007Z,99481.19
2023-04-07T03:14:57.972Z,99503.16
2023-04-07T03:17:26.408Z,99504.19
2023-04-07T03:19:54.443Z,99507.41
2023-04-07T03:22:22.365Z,99506.84
2023-04-07T03:24:51.628Z,99500.00
2023-04-07T03:27:20.333Z,99510.47
2023-04-07T03:29:48.427Z,99513.25
2023-04-07T03:32:16.403Z,99511.16
2023-04-07T03:34:44.248Z,99513.06
2023-04-07T03:37:12.168Z,99513.44
2023-04-07T03:39:41.174Z,99518.25
2023-04-07T03:42:10.487Z,99516.50
2023-04-07T03:44:38.394Z,99405.97
2023-04-07T03:47:06.459Z,99528.09
2023-04-07T03:49:34.403Z,99530.03
2023-04-07T03:52:02.373Z,99524.94
2023-04-07T03:54:30.246Z,99505.38
2023-04-07T03:56:58.481Z,99539.38
2023-04-07T03:59:27.776Z,99535.00
2023-04-07T04:01:55.804Z,99521.00
2023-04-07T04:04:24.709Z,99534.00
2023-04-07T04:06:52.924Z,99530.69
2023-04-07T04:09:21.014Z,99529.56
2023-04-07T04:11:48.977Z,99533.47
2023-04-07T04:14:17.406Z,99531.41
2023-04-07T04:16:46.683Z,99539.56
2023-04-07T04:19:14.555Z,99544.38
2023-04-07T04:21:42.525Z,99546.16
2023-04-07T04:24:10.880Z,99545.50
2023-04-07T04:26:38.953Z,99549.94
2023-04-07T04:29:06.888Z,99559.50
2023-04-07T04:31:34.908Z,99562.09
2023-04-07T04:34:04.227Z,99560.72
2023-04-07T04:36:32.330Z,99562.09
2023-04-07T04:39:00.408Z,99568.50
2023-04-07T04:41:28.414Z,99558.09
2023-04-07T04:43:56.305Z,99572.16
2023-04-07T04:46:24.299Z,99575.50
2023-04-07T04:48:52.766Z,99569.03
2023-04-07T04:51:22.013Z,99571.25
2023-04-07T04:53:49.981Z,99579.72
2023-04-07T04:56:17.908Z,99572.66
2023-04-07T04:58:46.640Z,99578.84
2023-04-07T05:01:14.875Z,99579.22
2023-04-07T05:03:43.207Z,99565.84
2023-04-07T05:06:11.313Z,99459.06
2023-04-07T05:08:40.664Z,99585.88
2023-04-07T05:11:08.581Z,99584.44
2023-04-07T05:13:36.774Z,99593.91
2023-04-07T05:16:04.942Z,99597.09
2023-04-07T05:18:32.881Z,99604.22
2023-04-07T05:21:01.942Z,99595.50
2023-04-07T05:23:29.910Z,99601.09
2023-04-07T05:25:59.207Z,99606.03
2023-04-07T05:28:27.157Z,99607.16
2023-04-07T05:30:55.080Z,99602.09
2023-04-07T05:33:23.027Z,99608.78
2023-04-07T05:35:51.012Z,99608.81
2023-04-07T05:38:18.863Z,99607.59
2023-04-07T05:40:48.329Z,99609.38
2023-04-07T05:43:17.698Z,99599.97
2023-04-07T05:45:45.748Z,99603.81
2023-04-07T05:48:13.700Z,99605.28
2023-04-07T05:50:41.665Z,99603.78
2023-04-07T05:53:09.701Z,99607.41
2023-04-07T05:55:37.646Z,99611.09
2023-04-07T05:58:05.676Z,99608.72
2023-04-07T06:00:34.967Z,99612.81
2023-04-07T06:03:03.951Z,99608.06
2023-04-07T06:05:32.052Z,99617.47
2023-04-07T06:07:59.965Z,99610.16
2023-04-07T06:10:27.873Z,99609.34
2023-04-07T06:12:56.198Z,99610.97
2023-04-07T06:15:24.164Z,99618.59
2023-04-07T06:17:53.626Z,99624.38
2023-04-07T06:20:23.159Z,99605.56
2023-04-07T06:22:51.190Z,99617.31
2023-04-07T06:25:19.226Z,99625.88
2023-04-07T06:27:47.205Z,99625.22
2023-04-07T06:30:16.179Z,99632.59
2023-04-07T06:32:44.209Z,99622.09
2023-04-07T06:35:13.530Z,99633.41
2023-04-07T06:37:41.676Z,99633.94
2023-04-07T06:40:10.532Z,99628.78
2023-04-07T06:42:38.409Z,99637.38
2023-04-07T06:45:07.176Z,99635.38
2023-04-07T06:47:35.101Z,99635.69
2023-04-07T06:50:03.113Z,99632.94
2023-04-07T06:52:32.445Z,99639.09
2023-04-07T06:55:00.893Z,99637.25
2023-04-07T06:57:28.824Z,99640.28
2023-04-07T06:59:56.918Z,99643.13
2023-04-07T07:02:24.976Z,99649.28
2023-04-07T07:04:53.075Z,99637.94
2023-04-07T07:07:21.467Z,99640.16
2023-04-07T07:09:50.854Z,99639.44
2023-04-07T07:12:18.931Z,99641.06
2023-04-07T07:14:46.945Z,99624.38
2023-04-07T07:17:15.421Z,99645.56
2023-04-07T07:19:43.533Z,99645.97
2023-04-07T07:22:11.554Z,99654.88
2023-04-07T07:24:39.729Z,99558.56
2023-04-07T07:27:09.140Z,99637.16
2023-04-07T07:29:37.366Z,99645.88
2023-04-07T07:32:05.712Z,99651.59
2023-04-07T07:34:34.409Z,99655.22
2023-04-07T07:37:02.322Z,99645.03
2023-04-07T07:39:30.697Z,99657.91
2023-04-07T07:41:58.668Z,99651.09
2023-04-07T07:44:28.825Z,99645.31
2023-04-07T07:46:58.304Z,99641.84
2023-04-07T07:49:26.397Z,99647.00
2023-04-07T07:51:54.420Z,99643.69
2023-04-07T07:54:22.500Z,99648.50
2023-04-07T07:56:50.464Z,99645.28
2023-04-07T07:59:18.660Z,99647.59
2023-04-07T08:01:48.073Z,99625.09
2023-04-07T08:04:16.092Z,99635.09
2023-04-07T08:06:44.266Z,99638.00
2023-04-07T08:09:12.340Z,99635.41
2023-04-07T08:11:40.333Z,99628.63
2023-04-07T08:14:09.821Z,99641.47
2023-04-07T08:16:38.124Z,99640.44
2023-04-07T08:19:07.779Z,99634.97
2023-04-07T08:21:35.860Z,99636.34
2023-04-07T08:24:04.549Z,99606.22
2023-04-07T08:26:32.797Z,99627.03
2023-04-07T08:29:00.777Z,99626.81
2023-04-07T08:31:28.895Z,99630.06
2023-04-07T08:33:58.333Z,99626.78
2023-04-07T08:36:28.947Z,99624.84
2023-04-07T08:38:56.950Z,99614.25
2023-04-07T08:41:31.671Z,99605.50
2023-04-07T08:44:00.823Z,99610.94
2023-04-07T08:46:30.524Z,99614.09
2023-04-07T08:48:59.126Z,99600.66
2023-04-07T08:51:31.921Z,99600.91
2023-04-07T08:54:07.953Z,99607.88
2023-04-07T08:56:36.092Z,99608.56
2023-04-07T08:59:04.499Z,99605.34
2023-04-07T09:01:33.493Z,99588.16
2023-04-07T09:04:03.241Z,99604.19
2023-04-07T09:06:33.082Z,99606.06
2023-04-07T09:09:01.187Z,99600.78
2023-04-07T09:11:30.365Z,99600.66
2023-04-07T09:13:59.067Z,99607.34
2023-04-07T09:16:31.059Z,99601.63
2023-04-07T09:18:59.495Z,99607.53
2023-04-07T09:21:27.872Z,99597.81
2023-04-07T09:23:57.182Z,99602.38
2023-04-07T09:26:27.302Z,99602.63
2023-04-07T09:28:58.625Z,99595.22
2023-04-07T09:31:46.104Z,99598.34
2023-04-07T09:34:26.267Z,99598.72
2023-04-07T09:36:54.196Z,99588.28
2023-04-07T09:39:23.624Z,99592.16
2023-04-07T09:41:52.134Z,99588.91
2023-04-07T09:44:20.124Z,99582.66
2023-04-07T09:46:52.223Z,99586.63
2023-04-07T09:49:21.240Z,99571.84
2023-04-07T09:52:00.151Z,99585.50
2023-04-07T09:54:36.667Z,99587.28
2023-04-07T09:57:05.881Z,99588.94
2023-04-07T09:59:35.145Z,99590.34
2023-04-07T10:02:03.898Z,99589.63
2023-04-07T10:04:32.042Z,99588.47
2023-04-07T10:07:00.946Z,99584.91
2023-04-07T10:09:29.787Z,99569.84
2023-04-07T10:12:00.078Z,99583.78
2023-04-07T10:14:29.695Z,99580.94
2023-04-07T10:16:58.241Z,99587.16
2023-04-07T10:19:28.186Z,99580.63
2023-04-07T10:21:57.156Z,99575.63
2023-04-07T10:24:39.258Z,99573.22
2023-04-07T10:27:14.306Z,99581.06
2023-04-07T10:29:44.726Z,99578.47
2023-04-07T10:32:13.137Z,99582.00
2023-04-07T10:35:00.039Z,99574.66
2023-04-07T10:37:28.665Z,99577.06
2023-04-07T10:40:31.358Z,99579.69
2023-04-07T10:43:01.226Z,99579.38
2023-04-07T10:45:59.626Z,99570.97
2023-04-07T10:48:33.241Z,99571.47
2023-04-07T10:51:18.048Z,99560.41
2023-04-07T10:54:21.094Z,99567.66
2023-04-07T10:57:12.008Z,99566.97
2023-04-07T10:59:47.105Z,99574.81
2023-04-07T11:02:35.052Z,99564.69
2023-04-07T11:05:03.903Z,99564.94
2023-04-07T11:07:51.530Z,99557.97
2023-04-07T11:10:22.011Z,99560.22
2023-04-07T11:13:01.012Z,99549.88
2023-04-07T11:15:30.386Z,99555.25
2023-04-07T11:18:15.235Z,99561.16
2023-04-07T11:20:47.445Z,99563.09
2023-04-07T11:23:16.654Z,99545.00
2023-04-07T11:25:46.163Z,99569.59
2023-04-07T11:28:15.768Z,99562.84
2023-04-07T11:30:51.704Z,99560.41
2023-04-07T11:33:21.475Z,99544.84
2023-04-07T11:35:55.748Z,99536.53
2023-04-07T11:38:25.775Z,99548.88
2023-04-07T11:40:54.017Z,99555.38
2023-04-07T11:43:23.931Z,99534.41
2023-04-07T11:46:11.524Z,99549.53
2023-04-07T11:48:41.366Z,99553.16
2023-04-07T11:51:17.602Z,99547.09
2023-04-07T11:53:46.347Z,99526.78
2023-04-07T11:56:18.767Z,99546.81
2023-04-07T11:58:50.090Z,99542.25
2023-04-07T12:01:19.848Z,99526.22
2023-04-07T12:03:59.381Z,99542.09
2023-04-07T12:06:33.421Z,99539.06
2023-04-07T12:09:02.133Z,99538.13
2023-04-07T12:11:30.475Z,99544.59
2023-04-07T12:13:58.433Z,99533.97
2023-04-07T12:16:27.799Z,99539.47
2023-04-07T12:18:55.780Z,99535.28
2023-04-07T12:21:24.160Z,99536.91
2023-04-07T12:23:52.395Z,99543.91
2023-04-07T12:26:23.410Z,99548.94
2023-04-07T12:28:51.502Z,99540.72
2023-04-07T12:31:19.635Z,99535.88
2023-04-07T12:33:49.082Z,99535.63
2023-04-07T12:36:17.312Z,99522.25
2023-04-07T12:38:45.705Z,99537.56
2023-04-07T12:41:13.687Z,99531.06
2023-04-07T12:43:41.680Z,99536.19
2023-04-07T12:46:09.688Z,99534.09
2023-04-07T12:48:37.684Z,99534.16
2023-04-07T12:51:07.322Z,99525.91
2023-04-07T12:53:35.399Z,99529.50
2023-04-07T12:56:04.210Z,99531.19
2023-04-07T12:58:32.209Z,99521.94
2023-04-07T13:01:00.874Z,99529.81
2023-04-07T13:03:29.085Z,99523.09
2023-04-07T13:06:01.399Z,99525.44
2023-04-07T13:08:30.730Z,99524.03
2023-04-07T13:10:58.743Z,99513.78
2023-04-07T13:13:26.626Z,99518.81
2023-04-07T13:15:54.701Z,99515.91
2023-04-07T13:18:22.924Z,99521.66
2023-04-07T13:21:06.298Z,99516.44
2023-04-07T13:23:43.868Z,99522.50
2023-04-07T13:26:12.101Z,99522.09
2023-04-07T13:28:40.055Z,99522.09
2023-04-07T13:31:07.994Z,99525.72
2023-04-07T13:33:37.746Z,99510.56
2023-04-07T13:36:05.700Z,99484.78
2023-04-07T13:38:33.620Z,99511.44
2023-04-07T13:41:04.145Z,99500.56
2023-04-07T13:43:32.240Z,99523.06
2023-04-07T13:46:00.249Z,99518.47
2023-04-07T13:48:28.160Z,99514.22
2023-04-07T13:50:56.043Z,99515.75
2023-04-07T13:53:24.059Z,99522.38
2023-04-07T13:55:52.033Z,99524.31
2023-04-07T13:58:21.296Z,99516.31
2023-04-07T14:00:49.252Z,99514.63
2023-04-07T14:03:17.243Z,99514.91
2023-04-07T14:05:45.223Z,99520.47
2023-04-07T14:08:13.112Z,99523.59
2023-04-07T14:10:42.162Z,99523.94
2023-04-07T14:13:10.961Z,99524.06
2023-04-07T14:15:40.321Z,99518.63
2023-04-07T14:18:09.417Z,99522.50
2023-04-07T14:20:38.046Z,99523.75
2023-04-07T14:23:06.000Z,99520.00
2023-04-07T14:25:33.966Z,99522.72
2023-04-07T14:28:02.387Z,99520.66
2023-04-07T14:30:30.933Z,99525.97
2023-04-07T14:33:01.088Z,99525.91
2023-04-07T14:35:29.828Z,99524.69
2023-04-07T14:37:57.862Z,99529.69
2023-04-07T14:40:26.023Z,99534.78
2023-04-07T14:43:06.709Z,99447.25
2023-04-07T14:45:36.127Z,99519.03
2023-04-07T14:48:05.869Z,99551.66
2023-04-07T14:50:33.826Z,99538.38
2023-04-07T14:53:02.419Z,99543.63
2023-04-07T14:55:30.981Z,99540.59
2023-04-07T14:57:58.877Z,99528.72
2023-04-07T15:00:28.789Z,99545.28
2023-04-07T15:02:57.060Z,99544.59
2023-04-07T15:05:28.712Z,99540.72
2023-04-07T15:07:57.139Z,99537.00
2023-04-07T15:10:25.028Z,99548.31
2023-04-07T15:12:52.903Z,99544.72
2023-04-07T15:15:21.040Z,99548.72
2023-04-07T15:17:49.023Z,99551.78
2023-04-07T15:20:17.067Z,99548.59
2023-04-07T15:22:46.345Z,99548.47
2023-04-07T15:25:14.245Z,99557.69
2023-04-07T15:27:42.166Z,99549.25
2023-04-07T15:30:10.666Z,99553.53
2023-04-07T15:32:38.673Z,99551.50
2023-04-07T15:35:07.250Z,99552.69
2023-04-07T15:37:35.157Z,99553.25
2023-04-07T15:40:04.733Z,99550.38
2023-04-07T15:42:35.624Z,99551.84
2023-04-07T15:45:03.649Z,99554.91
2023-04-07T15:47:31.635Z,99546.06
2023-04-07T15:49:59.577Z,99564.28
2023-04-07T15:52:27.744Z,99559.56
2023-04-07T15:54:55.766Z,99580.97
2023-04-07T15:57:25.152Z,99576.81
2023-04-07T15:59:53.369Z,99582.19
2023-04-07T16:02:21.524Z,99583.97
2023-04-07T16:04:49.624Z,99581.34
2023-04-07T16:07:17.761Z,99556.50
2023-04-07T16:09:45.700Z,99574.72
2023-04-07T16:12:13.822Z,99583.31
2023-04-07T16:14:43.255Z,99593.53
2023-04-07T16:17:11.536Z,99578.06
2023-04-07T16:19:39.481Z,99600.44
2023-04-07T16:22:07.469Z,99602.25
2023-04-07T16:24:35.393Z,99604.91
2023-04-07T16:27:04.464Z,99615.47
2023-04-07T16:29:32.627Z,99619.06
2023-04-07T16:32:02.770Z,99624.69
2023-04-07T16:34:30.794Z,99630.13
2023-04-07T16:36:58.766Z,99628.09
2023-04-07T16:39:29.311Z,99631.03
2023-04-07T16:41:57.625Z,99632.94
2023-04-07T16:44:26.012Z,99633.91
2023-04-07T16:46:54.036Z,99645.78
2023-04-07T16:49:23.358Z,99637.91
2023-04-07T16:51:51.282Z,99647.91
2023-04-07T16:54:19.168Z,99648.28
2023-04-07T16:56:47.072Z,99650.19
2023-04-07T16:59:15.250Z,99651.16
2023-04-07T17:01:44.848Z,99653.06
2023-04-07T17:04:12.921Z,99655.88
2023-04-07T17:06:42.220Z,99663.03
2023-04-07T17:09:12.156Z,99666.28
2023-04-07T17:11:42.089Z,99669.59
2023-04-07T17:14:10.049Z,99675.88
2023-04-07T17:16:37.952Z,99672.88
2023-04-07T17:19:05.865Z,99677.63
2023-04-07T17:21:33.759Z,99685.00
2023-04-07T17:24:03.061Z,99685.56
2023-04-07T17:26:31.426Z,99686.53
2023-04-07T17:28:59.692Z,99696.66
2023-04-07T17:31:27.933Z,99697.34
2023-04-07T17:33:56.126Z,99698.91
2023-04-07T17:36:24.054Z,99706.31
2023-04-07T17:38:51.870Z,99702.91
2023-04-07T17:41:21.309Z,99711.47
2023-04-07T17:43:49.568Z,99721.91
2023-04-07T17:46:17.674Z,99731.53
2023-04-07T17:48:45.703Z,99726.66
2023-04-07T17:51:14.285Z,99738.59
2023-04-07T17:53:42.256Z,99748.56
2023-04-07T17:56:10.173Z,99744.78
2023-04-07T17:58:39.484Z,99745.28
2023-04-07T18:01:09.473Z,99738.97
2023-04-07T18:03:38.309Z,99757.75
2023-04-07T18:06:08.469Z,99738.13
2023-04-07T18:08:36.561Z,99764.19
2023-04-07T18:11:06.963Z,99757.75
2023-04-07T18:13:35.070Z,99770.34
2023-04-07T18:16:07.684Z,99774.63
2023-04-07T18:18:36.372Z,99781.88
2023-04-07T18:21:04.811Z,99777.03
2023-04-07T18:23:32.752Z,99784.50
2023-04-07T18:26:04.706Z,99789.03
2023-04-07T18:28:32.965Z,99786.41
2023-04-07T18:31:02.439Z,99786.63
2023-04-07T18:33:33.094Z,99774.78
2023-04-07T18:36:07.841Z,99796.16
2023-04-07T18:38:36.565Z,99802.34
2023-04-07T18:41:04.928Z,99801.50
2023-04-07T18:43:32.912Z,99799.50
2023-04-07T18:46:00.899Z,99809.59
2023-04-07T18:48:28.821Z,99809.25
2023-04-07T18:50:58.199Z,99829.59
2023-04-07T18:53:26.538Z,99827.44
2023-04-07T18:55:54.470Z,99831.72
2023-04-07T18:58:22.416Z,99841.34
2023-04-07T19:00:52.833Z,99821.59
2023-04-07T19:03:21.734Z,99843.59
2023-04-07T19:05:52.617Z,99846.47
2023-04-07T19:08:22.124Z,99844.91
2023-04-07T19:10:51.074Z,99848.72
2023-04-07T19:13:19.665Z,99851.56
2023-04-07T19:15:47.807Z,99814.41
2023-04-07T19:18:16.156Z,99856.75
2023-04-07T19:20:44.394Z,99856.88
2023-04-07T19:23:12.385Z,99853.78
2023-04-07T19:25:44.385Z,99865.06
2023-04-07T19:28:13.643Z,99862.59
2023-04-07T19:30:41.628Z,99866.03
2023-04-07T19:33:09.588Z,99870.53
2023-04-07T19:35:39.131Z,99868.06
2023-04-07T19:38:07.534Z,99857.69
2023-04-07T19:40:35.479Z,99852.88
2023-04-07T19:43:05.007Z,99862.81
2023-04-07T19:45:33.039Z,99866.81
2023-04-07T19:48:01.299Z,99845.97
2023-04-07T19:50:29.388Z,99865.13
2023-04-07T19:52:57.410Z,99870.09
2023-04-07T19:55:26.025Z,99861.97
2023-04-07T19:57:53.947Z,99870.75
2023-04-07T20:00:23.617Z,99871.19
2023-04-07T20:02:51.805Z,99876.44
2023-04-07T20:05:20.015Z,99881.34
2023-04-07T20:07:47.997Z,99873.38
2023-04-07T20:10:16.151Z,99884.88
2023-04-07T20:12:44.079Z,99887.09
2023-04-07T20:15:12.737Z,99874.09
2023-04-07T20:17:42.281Z,99894.28
2023-04-07T20:20:11.157Z,99901.38
2023-04-07T20:22:39.191Z,99892.72
2023-04-07T20:25:08.163Z,99906.00
2023-04-07T20:27:36.189Z,99909.22
2023-04-07T20:30:04.458Z,99918.50
2023-04-07T20:32:32.428Z,99912.66
2023-04-07T20:35:02.794Z,99914.66
2023-04-07T20:37:30.743Z,99914.13
2023-04-07T20:39:58.866Z,99911.19
2023-04-07T20:42:26.801Z,99917.44
2023-04-07T20:44:59.116Z,99915.59
2023-04-07T20:47:27.131Z,99908.81
2023-04-07T20:49:55.390Z,99918.69
2023-04-07T20:52:25.866Z,99901.59
2023-04-07T20:54:53.861Z,99910.66
2023-04-07T20:57:22.007Z,99908.38
2023-04-07T20:59:49.975Z,99900.75
2023-04-07T21:02:18.128Z,99905.66
2023-04-07T21:04:46.200Z,99902.22
2023-04-07T21:07:14.163Z,99880.22
2023-04-07T21:09:43.400Z,99905.47
2023-04-07T21:12:11.510Z,99900.03
2023-04-07T21:14:39.382Z,99897.31
2023-04-07T21:17:07.381Z,99891.91
2023-04-07T21:19:35.657Z,99901.94
2023-04-07T21:22:04.771Z,99904.31
2023-04-07T21:24:33.052Z,99898.81
2023-04-07T21:27:02.408Z,99907.22
2023-04-07T21:29:31.800Z,99904.41
2023-04-07T21:31:59.836Z,99908.28
2023-04-07T21:34:27.743Z,99903.59
2023-04-07T21:36:55.661Z,99903.69
2023-04-07T21:39:23.661Z,99882.31
2023-04-07T21:41:52.831Z,99907.97
2023-04-07T21:44:22.614Z,99908.38
2023-04-07T21:46:50.627Z,99907.97
2023-04-07T21:49:22.218Z,99876.88
2023-04-07T21:51:50.243Z,99906.81
2023-04-07T21:54:18.448Z,99902.31
2023-04-07T21:56:49.078Z,99906.50
2023-04-07T21:59:17.768Z,99906.06
2023-04-07T22:01:47.254Z,99909.41
2023-04-07T22:04:15.752Z,99912.66
2023-04-07T22:06:43.755Z,99908.28
2023-04-07T22:09:12.013Z,99906.94
2023-04-07T22:11:40.032Z,99914.03
2023-04-07T22:14:07.967Z,99910.56
2023-04-07T22:16:36.633Z,99914.84
2023-04-07T22:19:05.963Z,99915.78
2023-04-07T22:21:33.958Z,99916.09
2023-04-07T22:24:01.879Z,99916.72
2023-04-07T22:26:31.774Z,99913.19
2023-04-07T22:28:59.657Z,99866.66
2023-04-07T22:31:27.649Z,99914.88
2023-04-07T22:33:55.612Z,99916.13
2023-04-07T22:36:24.899Z,99914.44
2023-04-07T22:38:52.794Z,99908.88
2023-04-07T22:41:21.506Z,99898.38
2023-04-07T22:43:49.418Z,99889.91
2023-04-07T22:46:18.146Z,99910.25
2023-04-07T22:48:46.147Z,99914.09
2023-04-07T22:51:14.065Z,99913.69
2023-04-07T22:53:43.342Z,99896.84
2023-04-07T22:56:11.346Z,99910.63
2023-04-07T22:58:39.577Z,99907.28
2023-04-07T23:01:07.780Z,99916.19
2023-04-07T23:03:35.861Z,99916.56
2023-04-07T23:06:04.196Z,99911.34
2023-04-07T23:08:32.240Z,99915.50
2023-04-07T23:11:01.550Z,99914.69
2023-04-07T23:13:29.490Z,99909.16
2023-04-07T23:15:58.171Z,99912.44
2023-04-07T23:18:26.080Z,99907.22
2023-04-07T23:20:54.138Z,99904.88
2023-04-07T23:23:22.105Z,99904.72
2023-04-07T23:25:50.002Z,99901.53
2023-04-07T23:28:19.322Z,99890.41
2023-04-07T23:30:47.231Z,99895.22
2023-04-07T23:33:15.182Z,99899.94
2023-04-07T23:35:43.109Z,99903.19
2023-04-07T23:38:11.092Z,99900.81
2023-04-07T23:40:39.092Z,99895.31
2023-04-07T23:43:07.200Z,99895.44
2023-04-07T23:45:36.597Z,99894.81
2023-04-07T23:48:04.691Z,99891.53
2023-04-07T23:50:32.599Z,99900.09
2023-04-07T23:53:00.462Z,99903.66
2023-04-07T23:55:28.461Z,99888.44
2023-04-07T23:57:56.353Z,99896.78
